OIIIURWA

Guest
Details From OIII - Teheran Mehrabad Intl
To URWA - Astrakhan
Flight Number -
Tags Generated
Created
Modified
Stats Distance 653 nm / 1,210 km
Max Altitude 0 ft / 0 m
Waypoints 4
Social Downloads 0
Likes 0
Share VATSIM

Download

Looking for another format? Having issues loading an existing format? Contact us
Advertisement - Login to hide

Notes

Generated

Route

OIII OLMAT ASTAK URWA

ID Type Via Altitude Latitude Longitude Leg Dist Tot Dist Heading (true) Name
O OIII APT - 0 ft / 0 m 35.69663˚ 51.29216˚ - 0 nm - -
OLMAT FIX - 0 ft / 0 m 42.52833˚ 49.28500˚ 420 nm 420 nm 348° / 347° -
ASTAK FIX - 0 ft / 0 m 46.28333˚ 48.00000˚ 232 nm 652 nm 347° / 346° -
O URWA APT - 0 ft / 0 m 46.28171˚ 47.99744˚ 0 nm 653 nm 227° / 227° -

Altitude Profile

Advertisement - Login to hide

Weather


0- 5 10 15 20 25 30 35+ Temperature / ° C

Clouds and Precipitation
Forecast for 2017-12-11 06:00 UTC. Updated 29 minutes ago

Ground ~20,000 ft ~40,000 ft Winds

OIII

Details ICAO OIII (THR)
Name Teheran Mehrabad Intl
Region Iran
Timezone Asia/Tehran (UTC+3.5)
Stats Elevation 3,962 ft / 1,208 m (AMSL)
Location 35.692631° 51.317409°
Runways 3
Magnetic Variation 4.729° E

METAR

OIII 110530Z 00000KT 3500 HZ NSC 05/M05 Q1021 A3015 NOSIG

Decode

TAF

TAF OIII 102300Z 1100/1206 28004MPS CAVOK PROB30 1103/1106 4000 HZ NSC TEMPO 1114/1121 28007MPS

Decode

Departure Runways

ID Width Length Bearing (true) Bearing (mag) Surface Threshold Offset Overrun Length
09 131 ft / 40 m 1,553 ft / 473 m 88.25° 83.52° Concrete 0 ft / 0 m 160 ft / 49 m
11L 148 ft / 45 m 13,077 ft / 3,986 m 109.70° 104.97° Asphalt 0 ft / 0 m 1,000 ft / 305 m
11R 197 ft / 60 m 13,227 ft / 4,032 m 109.74° 105.01° Asphalt 3,075 ft / 937 m 1,000 ft / 305 m
27 131 ft / 40 m 1,553 ft / 473 m 268.25° 263.52° Concrete 0 ft / 0 m 90 ft / 27 m
29L 197 ft / 60 m 13,227 ft / 4,032 m 289.77° 285.04° Asphalt 0 ft / 0 m 280 ft / 85 m
29R 148 ft / 45 m 13,077 ft / 3,986 m 289.72° 284.99° Asphalt 0 ft / 0 m 400 ft / 122 m

URWA

Details ICAO URWA (ASF)
Name ASTRAKHAN
Region Russia
Timezone Europe/Volgograd (UTC+3.0)
Stats Elevation -65 ft / -20 m (AMSL)
Location 46.280732° 48.006186°
Runways 2
Magnetic Variation 8.389° E

METAR

URWA 110530Z 10006MPS 9999 BKN023 03/00 Q1024 R09/010060 NOSIG RMK QFE770/1027

Decode

TAF

Not found

Destination Runways

ID Width Length Bearing (true) Bearing (mag) Surface Threshold Offset Overrun Length
09 138 ft / 42 m 8,181 ft / 2,494 m 96.01° 87.62° Concrete 0 ft / 0 m 165 ft / 50 m
11 330 ft / 101 m 5,083 ft / 1,549 m 120.87° 112.48° Grass 0 ft / 0 m 0 ft / 0 m
27 138 ft / 42 m 8,181 ft / 2,494 m 276.03° 267.64° Concrete 0 ft / 0 m 165 ft / 50 m
29 330 ft / 101 m 5,083 ft / 1,549 m 300.88° 292.49° Grass 0 ft / 0 m 0 ft / 0 m